LiveATC.Net - Listen to live air traffic control over the Internet! Contact LiveATC.net for advertising information


ICAO: KTAN  IATA: TAN   Airport: Taunton Municipal Airport
City: Taunton   State/Province: Massachusetts
Country: United States   Continent: North America
KTAN METAR Weather: KTAN 280552Z AUTO VRB04KT 7SM OVC006 22/21 A2966 RMK AO2 SLP044 T02220206 10233 20211 58015
KTAN Flight Activity (FlightAware)
KTAN Airport Info   (AirNav) (iFlightPlanner)
KTAN CTAF
Feed Status: DOWN
Last heard on: 2014-07-26 00:52:03 (2 days 5 hours 23 minutes ago)
KTAN CTAF Audio Archives
FacilityFrequency
Mansfield (1B9) UNICOM123.000
Plymouth (KPYM) UNICOM123.000
Taunton (KTAN) UNICOM122.700


NOTICE

Unauthorized use prohibited. See LiveATC.net Terms of Service


Find LiveATC Audio Streams


Airport/ARTCC Code

Frequency
(e.g., 124.400, 128.75)
Site-wide search

Browse LiveATC Feeds
LiveATC Coverage Map
Top 50 LiveATC Feeds
Bad Weather Areas

LiveATC FAQ
Offer a LiveATC Feed
Contact LiveATC.net
Press Inquiries

LiveATC on iPhone
LiveATC on Android

LiveATC Mobile
(Mobile browser)

ATC Audio Archives
Interesting Recordings

LiveATC Forums


Home Page
About LiveATC.net
Make a Donation
LiveATC Bookstore

Terms of Use
Privacy Policy

ATC/Radar Sites
U.S. ARTCC Freqs
Canadian Air Freqs

AIRMETs/SIGMETs

FAA Airport Status
Nat'l Airspace Status
Arrival Demand Charts


Server Software By:
Icecast.org
Liquidsoap

Please make a donation to help us keep growing!